Time;durP1;ratioP1;P1;durP2;ratioP2;P2;SDS_P1;SDS_P2;PMS_P1;PMS_P2;Temp;Humidity;BMP_temperature;BMP_pressure;BME280_temperature;BME280_humidity;BME280_pressure;Samples;Min_cycle;Max_cycle;Signal;HPM_P1;HPM_P2
2022/05/10 00:01:51;;;;;;;13.50;10.50;;;15.60;73.10;;;;;;4966881;28;20053;-89
2022/05/10 00:04:19;;;;;;;12.75;10.27;;;15.50;73.10;;;;;;4972247;28;20021;-89
2022/05/10 00:06:46;;;;;;;12.68;10.45;;;15.50;73.30;;;;;;4968806;28;20015;-89
2022/05/10 00:09:13;;;;;;;16.90;10.40;;;15.40;73.40;;;;;;4974607;28;20033;-89
2022/05/10 00:11:42;;;;;;;12.13;10.32;;;15.40;73.50;;;;;;4993692;28;20026;-88
2022/05/10 00:14:08;;;;;;;11.07;9.88;;;15.40;73.70;;;;;;4986377;28;20423;-89
2022/05/10 00:16:39;;;;;;;13.68;10.75;;;15.30;73.70;;;;;;4977597;28;20042;-89
2022/05/10 00:19:04;;;;;;;14.30;10.68;;;15.30;73.90;;;;;;4975316;28;20035;-89
2022/05/10 00:21:30;;;;;;;12.88;10.63;;;15.30;73.80;;;;;;4965270;28;20495;-89
2022/05/10 00:24:03;;;;;;;12.68;11.38;;;15.20;73.90;;;;;;4977990;28;20030;-89
2022/05/10 00:26:29;;;;;;;14.98;11.02;;;15.30;74.00;;;;;;4963736;28;20027;-89
2022/05/10 00:28:55;;;;;;;15.45;12.82;;;15.20;74.10;;;;;;4961136;28;20094;-89
2022/05/10 00:31:20;;;;;;;14.38;11.02;;;15.20;74.20;;;;;;4975288;28;20022;-91
2022/05/10 00:33:46;;;;;;;12.98;11.38;;;15.20;74.30;;;;;;4979230;28;20027;-88
2022/05/10 00:36:15;;;;;;;12.57;10.65;;;15.10;74.30;;;;;;4994754;28;20023;-87
2022/05/10 00:38:42;;;;;;;13.68;10.75;;;15.10;74.50;;;;;;4968615;28;20031;-89
2022/05/10 00:41:19;;;;;;;14.20;11.32;;;15.00;74.60;;;;;;4990835;28;20030;-89
2022/05/10 00:43:51;;;;;;;14.73;11.13;;;15.00;74.80;;;;;;4982372;28;20026;-89
2022/05/10 00:46:26;;;;;;;12.00;10.38;;;14.90;75.50;;;;;;4983742;28;20362;-89
2022/05/10 00:49:06;;;;;;;13.82;10.18;;;14.90;75.20;;;;;;4986707;28;20081;-89
2022/05/10 00:51:43;;;;;;;11.23;10.13;;;14.80;75.20;;;;;;4989113;28;20057;-89
2022/05/10 00:54:25;;;;;;;11.65;9.43;;;14.80;75.30;;;;;;5005925;28;20027;-88
2022/05/10 00:57:16;;;;;;;13.27;9.52;;;14.70;75.40;;;;;;4988590;28;20034;-88
2022/05/10 01:00:04;;;;;;;12.35;9.65;;;14.60;75.60;;;;;;4987718;28;20101;-88
2022/05/10 01:03:00;;;;;;;12.32;9.60;;;14.70;75.80;;;;;;4974535;28;20026;-89
2022/05/10 01:05:38;;;;;;;14.80;10.30;;;14.70;75.70;;;;;;4953478;28;20374;-89
2022/05/10 01:08:26;;;;;;;12.18;9.95;;;14.60;75.70;;;;;;4986686;28;20080;-88
2022/05/10 01:11:13;;;;;;;16.92;10.57;;;14.60;75.60;;;;;;4989571;28;20113;-88
2022/05/10 01:13:51;;;;;;;12.55;10.35;;;14.60;75.70;;;;;;4967884;28;20126;-88
2022/05/10 01:16:21;;;;;;;14.02;9.98;;;14.60;75.90;;;;;;4981349;28;20108;-89
2022/05/10 01:18:50;;;;;;;12.57;10.18;;;14.50;76.00;;;;;;4966587;28;20046;-88
2022/05/10 01:21:38;;;;;;;13.25;9.45;;;14.40;76.10;;;;;;4977955;28;20166;-88
2022/05/10 01:24:09;;;;;;;11.90;9.85;;;14.40;76.30;;;;;;4971837;28;20117;-88
2022/05/10 01:26:42;;;;;;;10.88;9.70;;;14.40;76.20;;;;;;4966349;28;20114;-87
2022/05/10 01:29:13;;;;;;;17.00;9.50;;;14.40;76.40;;;;;;4969308;28;20027;-88
2022/05/10 01:34:49;;;;;;;10.43;9.05;;;14.30;76.60;;;;;;4997917;28;20294;-88
2022/05/10 01:37:20;;;;;;;10.95;9.10;;;14.30;76.70;;;;;;4965265;28;20056;-88
2022/05/10 01:40:06;;;;;;;12.40;8.43;;;14.20;77.00;;;;;;4968221;28;20085;-88
2022/05/10 01:42:41;;;;;;;11.10;8.32;;;14.20;77.20;;;;;;4972228;28;20091;-89
2022/05/10 01:45:34;;;;;;;9.73;8.27;;;14.20;77.20;;;;;;4969304;28;20034;-88
2022/05/10 01:48:02;;;;;;;10.63;7.70;;;14.10;77.20;;;;;;4963126;28;20043;-88
2022/05/10 01:50:51;;;;;;;8.80;7.90;;;14.10;77.20;;;;;;4960978;28;20077;-89
2022/05/10 01:53:23;;;;;;;11.27;8.38;;;14.00;77.50;;;;;;4961432;28;20031;-88
2022/05/10 01:55:58;;;;;;;9.18;8.20;;;14.00;77.50;;;;;;4960631;28;20475;-91
2022/05/10 01:58:35;;;;;;;10.50;7.60;;;13.90;77.70;;;;;;4960243;28;20039;-89
2022/05/10 02:01:25;;;;;;;9.43;7.82;;;13.90;77.90;;;;;;4961333;28;20030;-88
2022/05/10 02:03:51;;;;;;;12.27;7.90;;;13.80;77.90;;;;;;4960986;28;20042;-89
2022/05/10 02:06:26;;;;;;;8.77;7.88;;;13.80;77.70;;;;;;4960766;28;20018;-88
2022/05/10 02:09:16;;;;;;;8.88;7.97;;;13.70;77.80;;;;;;4971835;28;20084;-88
2022/05/10 02:11:55;;;;;;;9.65;7.57;;;13.70;77.90;;;;;;4980291;28;20506;-88
2022/05/10 02:14:35;;;;;;;9.13;7.82;;;13.70;78.40;;;;;;4979566;28;20035;-88
2022/05/10 02:17:10;;;;;;;10.10;7.85;;;13.60;78.10;;;;;;4965731;28;20026;-88
2022/05/10 02:19:43;;;;;;;8.27;7.47;;;13.50;78.40;;;;;;4960742;28;20259;-88
2022/05/10 02:22:16;;;;;;;10.68;7.97;;;13.50;78.30;;;;;;4977557;28;20019;-88
2022/05/10 02:24:45;;;;;;;8.07;7.10;;;13.50;79.00;;;;;;4977336;28;20492;-87
2022/05/10 02:27:20;;;;;;;13.45;8.00;;;13.50;78.60;;;;;;4971586;28;20018;-88
2022/05/10 02:30:08;;;;;;;8.98;7.50;;;13.40;78.70;;;;;;4978026;28;20054;-89
2022/05/10 02:35:23;;;;;;;10.63;8.50;;;13.30;78.70;;;;;;4984875;28;20491;-89
2022/05/10 02:37:49;;;;;;;10.48;8.63;;;13.30;78.70;;;;;;4976345;28;20497;-88
2022/05/10 02:40:15;;;;;;;11.30;8.95;;;13.20;78.90;;;;;;4979357;28;20023;-89
2022/05/10 02:42:43;;;;;;;10.65;8.45;;;13.20;79.20;;;;;;4979331;28;20034;-88
2022/05/10 02:45:09;;;;;;;9.35;8.35;;;13.20;79.40;;;;;;4978589;28;20018;-89
2022/05/10 02:47:42;;;;;;;12.40;9.15;;;13.10;79.40;;;;;;4979812;28;20033;-88
2022/05/10 02:50:28;;;;;;;10.55;8.82;;;13.10;79.80;;;;;;4979033;28;20054;-88
2022/05/10 02:52:54;;;;;;;10.20;8.38;;;13.10;80.00;;;;;;4978996;28;20080;-89
2022/05/10 02:55:27;;;;;;;10.75;8.65;;;13.10;79.90;;;;;;4958404;28;20072;-88
2022/05/10 02:57:56;;;;;;;9.50;8.52;;;13.10;80.20;;;;;;4994053;28;20018;-89
2022/05/10 03:00:23;;;;;;;11.25;8.80;;;13.10;80.20;;;;;;4978239;28;20023;-88
2022/05/10 03:02:53;;;;;;;11.60;8.90;;;13.20;80.30;;;;;;4980353;28;20116;-89
2022/05/10 03:05:23;;;;;;;9.77;8.70;;;13.10;80.40;;;;;;4989497;28;20027;-88
2022/05/10 03:07:48;;;;;;;13.35;9.35;;;13.10;80.40;;;;;;4995266;28;20097;-88
2022/05/10 03:10:14;;;;;;;11.68;9.18;;;13.10;80.40;;;;;;4977966;28;20050;-89
2022/05/10 03:12:40;;;;;;;10.27;9.23;;;13.00;80.50;;;;;;4979179;28;20037;-88
2022/05/10 03:15:06;;;;;;;11.85;9.20;;;13.00;80.60;;;;;;4977413;28;20029;-88
2022/05/10 03:17:32;;;;;;;16.38;10.43;;;13.00;80.60;;;;;;4978573;28;20027;-88
2022/05/10 03:19:57;;;;;;;13.13;9.98;;;13.00;80.70;;;;;;4966493;28;20431;-88
2022/05/10 03:22:23;;;;;;;10.52;9.25;;;12.90;80.80;;;;;;4969063;28;20081;-89
2022/05/10 03:24:48;;;;;;;14.70;10.10;;;12.90;81.00;;;;;;4958589;28;20027;-88
2022/05/10 03:27:16;;;;;;;10.80;9.70;;;12.90;81.20;;;;;;4966261;28;20117;-89
2022/05/10 03:29:41;;;;;;;11.35;9.43;;;12.80;81.30;;;;;;4965272;28;20023;-88
2022/05/10 03:32:08;;;;;;;12.65;9.65;;;12.80;81.40;;;;;;4994354;28;20034;-89
2022/05/10 03:37:17;;;;;;;10.65;9.50;;;12.80;81.60;;;;;;4986170;28;20029;-89
2022/05/10 03:39:43;;;;;;;10.45;9.35;;;12.70;81.60;;;;;;4974986;28;20022;-88
2022/05/10 03:42:09;;;;;;;10.57;8.90;;;12.80;81.70;;;;;;4977941;28;20069;-89
2022/05/10 03:44:36;;;;;;;11.80;9.55;;;12.70;81.70;;;;;;4994365;28;20014;-87
2022/05/10 03:47:01;;;;;;;10.93;9.80;;;12.70;81.80;;;;;;5000225;28;20044;-88
2022/05/10 03:49:27;;;;;;;10.40;8.88;;;12.70;82.00;;;;;;4990480;28;20063;-88
2022/05/10 03:51:56;;;;;;;11.43;9.70;;;12.70;82.20;;;;;;4978416;28;20132;-88
2022/05/10 03:54:23;;;;;;;12.00;9.82;;;12.70;82.20;;;;;;4973950;28;20019;-88
2022/05/10 03:56:50;;;;;;;12.40;9.65;;;12.60;82.20;;;;;;4993346;23;20065;-88
2022/05/10 03:59:17;;;;;;;10.75;9.15;;;12.70;82.20;;;;;;4995101;28;20029;-88
2022/05/10 04:01:43;;;;;;;11.43;9.73;;;12.60;82.20;;;;;;4994986;28;20026;-87
2022/05/10 04:04:09;;;;;;;10.60;9.38;;;12.60;82.30;;;;;;4994763;28;20030;-88
2022/05/10 04:06:34;;;;;;;12.18;10.15;;;12.60;82.40;;;;;;4995085;28;20029;-88
2022/05/10 04:09:00;;;;;;;15.27;10.20;;;12.60;82.50;;;;;;5013330;28;20022;-87
2022/05/10 04:11:25;;;;;;;12.10;10.55;;;12.60;82.60;;;;;;4995238;28;20533;-87
2022/05/10 04:13:51;;;;;;;11.93;10.50;;;12.60;82.70;;;;;;4976377;28;20048;-87
2022/05/10 04:16:16;;;;;;;13.02;10.20;;;12.60;82.90;;;;;;4991609;28;20022;-87
2022/05/10 04:18:43;;;;;;;11.27;10.13;;;12.60;83.00;;;;;;5002867;28;20045;-87
2022/05/10 04:21:09;;;;;;;11.95;10.63;;;12.60;83.20;;;;;;4988940;28;20034;-87
2022/05/10 04:23:35;;;;;;;12.40;10.63;;;12.60;83.20;;;;;;4991332;28;20025;-88
2022/05/10 04:26:06;;;;;;;13.05;10.38;;;12.60;83.30;;;;;;4995495;28;20022;-87
2022/05/10 04:28:34;;;;;;;14.25;10.32;;;12.60;83.60;;;;;;4979754;28;20053;-88
2022/05/10 04:30:59;;;;;;;12.68;10.15;;;12.60;83.50;;;;;;4991369;28;20030;-87
2022/05/10 04:33:26;;;;;;;14.25;10.32;;;12.60;83.50;;;;;;4985134;28;20343;-87
2022/05/10 04:35:52;;;;;;;11.10;9.90;;;12.60;83.50;;;;;;4990429;28;20085;-87
2022/05/10 04:38:17;;;;;;;13.50;10.18;;;12.60;83.70;;;;;;4979851;28;20457;-87
2022/05/10 04:43:32;;;;;;;14.15;11.00;;;12.50;84.00;;;;;;4996903;28;20029;-88
2022/05/10 04:45:58;;;;;;;14.68;10.88;;;12.60;84.00;;;;;;4978975;28;20022;-87
2022/05/10 04:48:23;;;;;;;12.00;10.55;;;12.60;84.10;;;;;;4979223;28;20089;-87
2022/05/10 04:50:50;;;;;;;15.68;10.95;;;12.60;84.20;;;;;;4989768;28;20026;-87
2022/05/10 04:53:16;;;;;;;11.70;10.38;;;12.60;84.20;;;;;;4982169;28;20027;-87
2022/05/10 04:55:41;;;;;;;12.25;10.93;;;12.70;84.30;;;;;;4998751;28;20038;-87
2022/05/10 04:58:07;;;;;;;15.07;10.23;;;12.70;84.40;;;;;;4989967;28;20559;-87
2022/05/10 05:00:33;;;;;;;11.88;10.20;;;12.80;84.60;;;;;;4979077;28;20250;-87
2022/05/10 05:02:58;;;;;;;12.65;9.88;;;13.00;84.80;;;;;;4982576;28;20458;-86
2022/05/10 05:05:24;;;;;;;12.18;9.77;;;13.10;84.80;;;;;;4994672;28;20019;-87
2022/05/10 05:07:50;;;;;;;11.98;9.80;;;13.30;84.80;;;;;;4981451;28;20562;-87
2022/05/10 05:10:16;;;;;;;11.90;10.02;;;13.40;84.80;;;;;;4997884;28;20390;-87
2022/05/10 05:12:41;;;;;;;10.52;9.43;;;13.60;84.60;;;;;;4999126;28;20379;-87
2022/05/10 05:15:11;;;;;;;11.27;10.00;;;13.70;84.50;;;;;;4981981;28;20665;-88
2022/05/10 05:17:37;;;;;;;17.08;11.25;;;13.80;84.50;;;;;;4984094;28;20018;-87
2022/05/10 05:20:03;;;;;;;16.55;11.57;;;14.00;84.30;;;;;;4989809;28;20027;-88
2022/05/10 05:22:29;;;;;;;15.90;11.32;;;14.10;84.20;;;;;;4982492;28;20045;-87
2022/05/10 05:24:54;;;;;;;16.10;11.95;;;14.20;84.30;;;;;;4978284;28;20045;-88
2022/05/10 05:27:20;;;;;;;15.73;11.88;;;14.30;84.90;;;;;;4980491;28;20029;-87
2022/05/10 05:29:46;;;;;;;15.80;11.75;;;14.40;84.50;;;;;;4978199;28;20080;-88
2022/05/10 05:32:13;;;;;;;14.05;11.75;;;14.50;84.60;;;;;;4978232;28;20042;-88
2022/05/10 05:34:42;;;;;;;12.80;11.40;;;14.60;84.80;;;;;;4984352;28;20026;-88
2022/05/10 05:39:52;;;;;;;17.88;11.93;;;14.70;84.90;;;;;;4996017;28;20037;-88
2022/05/10 05:42:18;;;;;;;15.85;11.02;;;14.70;84.80;;;;;;4997077;28;20019;-88
2022/05/10 05:44:44;;;;;;;13.88;11.35;;;14.70;84.90;;;;;;4978951;28;20026;-89
2022/05/10 05:47:10;;;;;;;22.17;13.05;;;14.80;85.30;;;;;;4992200;28;20030;-88
2022/05/10 05:49:36;;;;;;;14.55;12.00;;;14.80;85.40;;;;;;5001871;28;20019;-88
2022/05/10 05:52:02;;;;;;;17.92;12.60;;;14.90;85.50;;;;;;4999279;28;20166;-90
2022/05/10 05:54:28;;;;;;;15.07;12.43;;;14.90;85.50;;;;;;4999153;28;20033;-88
2022/05/10 05:57:05;;;;;;;16.25;11.80;;;15.00;85.60;;;;;;5003064;28;20050;-89
2022/05/10 05:59:32;;;;;;;16.75;12.32;;;15.10;85.90;;;;;;4991610;28;20026;-88
2022/05/10 06:01:58;;;;;;;13.90;12.13;;;15.20;85.80;;;;;;5013380;28;20022;-87
2022/05/10 06:04:23;;;;;;;14.82;11.48;;;15.20;85.90;;;;;;4990807;28;20041;-88
2022/05/10 06:06:49;;;;;;;14.60;11.98;;;15.30;86.00;;;;;;4978161;28;20023;-89
2022/05/10 06:09:19;;;;;;;16.05;12.10;;;15.30;86.20;;;;;;5010373;28;20021;-89
2022/05/10 06:11:46;;;;;;;16.25;12.52;;;15.40;86.30;;;;;;5004606;28;20094;-88
2022/05/10 06:14:12;;;;;;;13.23;11.45;;;15.50;86.40;;;;;;5005434;28;20030;-89
2022/05/10 06:16:42;;;;;;;13.20;10.88;;;15.60;86.30;;;;;;4986447;28;20022;-89
2022/05/10 06:19:14;;;;;;;17.17;12.25;;;15.80;86.50;;;;;;4990821;28;20589;-89
2022/05/10 06:21:41;;;;;;;12.75;11.23;;;15.90;86.40;;;;;;5013988;28;20018;-88
2022/05/10 06:24:11;;;;;;;14.27;10.57;;;16.00;86.10;;;;;;5010572;28;20413;-89
2022/05/10 06:26:37;;;;;;;14.55;11.60;;;16.10;86.10;;;;;;5005714;28;20075;-89
2022/05/10 06:29:03;;;;;;;15.30;10.88;;;16.20;86.00;;;;;;4980639;28;20041;-89
2022/05/10 06:31:28;;;;;;;14.00;11.88;;;16.30;86.00;;;;;;4977170;28;20030;-89
2022/05/10 06:33:54;;;;;;;16.60;11.45;;;16.40;85.80;;;;;;4982343;28;20045;-89
2022/05/10 06:36:20;;;;;;;15.35;10.82;;;16.40;85.50;;;;;;5000589;28;20037;-89
2022/05/10 06:38:47;;;;;;;15.60;11.80;;;16.40;85.30;;;;;;4976845;28;20022;-89
2022/05/10 06:41:13;;;;;;;16.75;10.75;;;16.50;85.30;;;;;;4977254;28;20022;-90
2022/05/10 06:43:38;;;;;;;17.00;10.75;;;16.50;85.40;;;;;;4979314;28;21412;-88
2022/05/10 06:46:09;;;;;;;16.30;10.85;;;16.60;85.30;;;;;;4985085;28;20090;-90
2022/05/10 06:48:35;;;;;;;16.95;10.70;;;16.70;85.00;;;;;;4985829;28;20030;-89
2022/05/10 06:51:05;;;;;;;15.88;11.48;;;16.80;85.00;;;;;;5007367;28;20461;-89
2022/05/10 06:53:30;;;;;;;16.60;11.25;;;16.80;85.10;;;;;;5013592;28;20009;-87
2022/05/10 06:55:56;;;;;;;15.38;11.98;;;17.00;85.50;;;;;;5007827;28;20029;-87
2022/05/10 06:58:22;;;;;;;22.10;12.30;;;17.10;85.70;;;;;;4996557;28;20067;-89
2022/05/10 07:00:47;;;;;;;17.75;13.40;;;17.20;85.60;;;;;;4990533;28;20019;-89
2022/05/10 07:03:15;;;;;;;20.40;11.63;;;17.30;85.70;;;;;;4976211;28;20022;-88
2022/05/10 07:05:45;;;;;;;16.02;11.65;;;17.50;85.60;;;;;;4995939;28;20022;-88
2022/05/10 07:08:12;;;;;;;13.00;10.38;;;17.60;85.30;;;;;;4986524;28;20025;-90
2022/05/10 07:10:38;;;;;;;12.75;10.68;;;17.80;85.00;;;;;;4975957;28;20022;-90
2022/05/10 07:13:03;;;;;;;14.02;9.55;;;17.90;84.80;;;;;;4975634;28;20034;-91
2022/05/10 07:15:30;;;;;;;12.00;9.05;;;18.10;84.70;;;;;;4975875;28;20058;-90
2022/05/10 07:17:55;;;;;;;11.18;8.27;;;18.40;84.30;;;;;;4975768;28;20544;-90
2022/05/10 07:20:21;;;;;;;9.48;7.63;;;18.60;83.90;;;;;;4976689;28;20133;-91
2022/05/10 07:22:48;;;;;;;8.88;6.75;;;18.80;83.50;;;;;;4993203;28;20028;-89
2022/05/10 07:25:17;;;;;;;11.98;8.25;;;19.10;83.40;;;;;;4997237;28;20542;-90
2022/05/10 07:27:46;;;;;;;14.13;8.38;;;19.40;82.90;;;;;;4999790;28;20033;-90
2022/05/10 07:30:14;;;;;;;10.43;7.85;;;19.50;81.90;;;;;;4991396;28;20503;-89
2022/05/10 07:32:39;;;;;;;9.68;7.85;;;19.70;81.40;;;;;;4989787;28;20018;-88
2022/05/10 07:35:07;;;;;;;8.10;7.18;;;19.80;81.50;;;;;;4979139;28;20038;-89
2022/05/10 07:37:34;;;;;;;9.20;7.15;;;20.00;81.10;;;;;;4981582;28;20026;-89
2022/05/10 07:40:02;;;;;;;7.90;6.30;;;20.30;80.90;;;;;;4993855;28;20029;-89
2022/05/10 07:42:28;;;;;;;9.23;6.93;;;20.50;80.80;;;;;;4984271;28;20022;-90
2022/05/10 07:44:53;;;;;;;8.95;6.63;;;20.70;80.30;;;;;;4989128;28;20030;-90
2022/05/10 07:47:19;;;;;;;10.32;6.47;;;21.00;80.30;;;;;;4991277;28;20019;-88
2022/05/10 07:49:45;;;;;;;9.57;6.50;;;21.20;78.90;;;;;;4995238;28;20026;-87
2022/05/10 07:52:12;;;;;;;7.25;6.55;;;21.30;78.50;;;;;;4995653;28;20042;-87
2022/05/10 07:54:38;;;;;;;10.45;5.57;;;21.40;78.00;;;;;;4987726;28;20037;-88
2022/05/10 07:57:04;;;;;;;8.25;5.78;;;21.70;78.40;;;;;;4999995;28;20030;-91
2022/05/10 07:59:31;;;;;;;9.05;6.10;;;21.90;77.50;;;;;;4991595;28;20022;-90
2022/05/10 08:01:57;;;;;;;6.07;5.45;;;22.20;77.60;;;;;;4991579;28;20023;-90
2022/05/10 08:04:23;;;;;;;7.82;5.60;;;22.60;77.20;;;;;;4979107;28;20017;-89
2022/05/10 08:06:50;;;;;;;7.18;5.40;;;23.00;76.30;;;;;;4996971;28;20019;-90
2022/05/10 08:09:16;;;;;;;7.85;5.65;;;23.40;75.60;;;;;;4988754;28;20494;-91
2022/05/10 08:11:43;;;;;;;10.80;5.40;;;23.60;74.30;;;;;;4990767;28;20113;-90
2022/05/10 08:14:09;;;;;;;10.80;5.10;;;23.70;73.60;;;;;;4985635;28;20117;-90
2022/05/10 08:16:35;;;;;;;16.83;5.40;;;23.80;72.40;;;;;;4986786;28;20556;-91
2022/05/10 08:19:01;;;;;;;7.32;4.97;;;23.90;72.00;;;;;;4977263;28;20113;-91
2022/05/10 08:21:26;;;;;;;5.85;5.10;;;24.10;71.60;;;;;;4990294;28;20069;-90
2022/05/10 08:23:53;;;;;;;5.88;5.00;;;24.10;70.80;;;;;;4984856;28;20072;-91
2022/05/10 08:26:20;;;;;;;6.20;4.68;;;24.20;70.60;;;;;;4983909;28;20022;-90
2022/05/10 08:28:46;;;;;;;6.82;4.80;;;24.40;71.20;;;;;;4994626;28;20452;-91
2022/05/10 08:31:13;;;;;;;5.63;4.25;;;24.60;70.10;;;;;;4986602;28;20033;-91
2022/05/10 08:33:41;;;;;;;5.93;4.22;;;24.90;70.40;;;;;;4980688;28;20029;-91
2022/05/10 08:36:10;;;;;;;5.60;4.57;;;25.20;69.50;;;;;;4984612;28;20030;-90
2022/05/10 08:38:36;;;;;;;5.35;4.18;;;25.60;68.20;;;;;;4992033;28;20347;-91
2022/05/10 08:41:11;;;;;;;6.45;4.43;;;25.90;68.40;;;;;;4985533;28;20025;-91
2022/05/10 08:43:47;;;;;;;5.95;4.35;;;26.00;66.80;;;;;;4983302;28;20014;-91
2022/05/10 08:46:20;;;;;;;4.88;3.83;;;26.10;66.20;;;;;;4987190;28;20113;-91
2022/05/10 08:48:50;;;;;;;5.82;3.95;;;26.10;66.00;;;;;;4988688;28;20030;-91
2022/05/10 08:51:17;;;;;;;6.63;4.65;;;26.20;65.50;;;;;;4977978;28;20037;-91
2022/05/10 08:53:54;;;;;;;12.02;4.53;;;26.40;65.10;;;;;;4979302;28;20066;-93
2022/05/10 08:56:50;;;;;;;;;;;;;;;;;;;;;
2022/05/10 08:59:53;;;;;;;4.85;4.35;;;26.40;62.70;;;;;;5021537;28;20100;-91
2022/05/10 09:02:47;;;;;;;3.97;3.67;;;26.60;62.80;;;;;;5002971;28;20394;-92
2022/05/10 09:05:47;;;;;;;5.63;3.80;;;27.10;63.10;;;;;;4979305;28;20058;-92
2022/05/10 09:08:55;;;;;;;4.32;3.65;;;27.60;61.50;;;;;;4997724;28;20068;-92
2022/05/10 09:11:50;;;;;;;3.65;3.35;;;27.90;59.70;;;;;;5000476;28;20199;-92
2022/05/10 09:14:30;;;;;;;6.22;3.70;;;28.30;59.10;;;;;;5003828;28;20038;-93
2022/05/10 09:17:13;;;;;;;5.63;3.30;;;28.70;58.60;;;;;;5006212;28;20022;-93
2022/05/10 09:20:04;;;;;;;3.30;3.03;;;29.30;56.00;;;;;;5009120;28;20026;-93
2022/05/10 09:23:21;;;;;;;;;;;;;;;;;;;;;
2022/05/10 09:26:24;;;;;;;2.88;2.67;;;30.20;53.90;;;;;;5045931;23;20512;-89
2022/05/10 09:29:21;;;;;;;3.60;2.97;;;30.90;52.10;;;;;;4999571;28;20026;-89
2022/05/10 09:35:27;;;;;;;3.97;2.63;;;32.40;48.40;;;;;;5018328;28;20057;-88
2022/05/10 09:38:06;;;;;;;5.90;3.10;;;32.80;46.80;;;;;;5004769;28;20029;-89
2022/05/10 09:40:56;;;;;;;3.67;3.10;;;33.40;46.20;;;;;;5014732;28;20018;-88
2022/05/10 09:43:37;;;;;;;3.60;2.33;;;33.90;45.50;;;;;;4991310;28;20433;-87
2022/05/10 09:46:36;;;;;;;2.92;2.72;;;34.60;44.30;;;;;;5003709;28;20064;-86
2022/05/10 09:49:36;;;;;;;3.88;2.30;;;35.50;44.00;;;;;;5019233;28;20065;-84
2022/05/10 09:58:19;;;;;;;4.78;2.38;;;36.70;41.10;;;;;;5035967;22;20137;-88
2022/05/10 10:00:53;;;;;;;4.07;2.45;;;37.40;41.10;;;;;;4972120;28;20504;-89
2022/05/10 10:03:31;;;;;;;3.40;2.35;;;37.90;40.30;;;;;;4961870;28;20035;-89
2022/05/10 10:06:19;;;;;;;5.45;3.22;;;38.40;39.10;;;;;;4969375;28;20105;-90
2022/05/10 10:09:27;;;;;;;2.50;2.20;;;38.60;39.10;;;;;;4964475;28;20129;-90
2022/05/10 10:12:00;;;;;;;2.97;2.22;;;38.90;38.00;;;;;;4956816;28;20046;-90
2022/05/10 10:14:53;;;;;;;3.65;2.53;;;39.10;37.50;;;;;;4962984;28;20027;-89
2022/05/10 10:18:09;;;;;;;;;;;;;;;;;;;;;
2022/05/10 10:27:57;;;;;;;4.25;2.95;;;38.80;36.90;;;;;;4937393;29;20032;-91
2022/05/10 10:34:21;;;;;;;;;;;;;;;;;;;;;
2022/05/10 10:36:59;;;;;;;3.17;2.97;;;37.10;39.50;;;;;;4922368;29;20172;-91
2022/05/10 10:39:57;;;;;;;4.30;3.20;;;36.40;39.30;;;;;;4954735;28;20405;-90
2022/05/10 10:43:13;;;;;;;3.97;3.10;;;36.30;39.40;;;;;;4962428;28;20029;-91
2022/05/10 10:45:49;;;;;;;5.35;3.83;;;36.00;40.20;;;;;;4911282;29;20024;-90
2022/05/10 10:48:34;;;;;;;4.28;3.58;;;35.60;39.80;;;;;;4971569;28;20484;-91
2022/05/10 10:51:09;;;;;;;3.42;2.90;;;34.70;39.70;;;;;;4982262;28;20030;-92
2022/05/10 10:53:37;;;;;;;3.40;3.10;;;32.50;40.80;;;;;;4982326;28;20031;-92
2022/05/10 10:56:21;;;;;;;3.95;3.17;;;31.60;41.90;;;;;;4982174;28;20042;-94
2022/05/10 10:59:05;;;;;;;3.25;2.83;;;31.10;42.60;;;;;;4998103;28;20145;-91
2022/05/10 11:02:29;;;;;;;4.40;2.92;;;31.00;43.80;;;;;;4981136;28;20451;-92
2022/05/10 11:05:28;;;;;;;4.03;3.00;;;30.40;45.00;;;;;;4945495;28;20033;-90
2022/05/10 11:08:11;;;;;;;3.70;3.22;;;30.40;44.40;;;;;;4980421;28;20022;-91
2022/05/10 11:10:52;;;;;;;4.95;3.38;;;30.30;44.90;;;;;;4979737;28;20060;-90
2022/05/10 11:13:40;;;;;;;3.80;3.10;;;30.20;45.80;;;;;;4979323;28;20034;-91
2022/05/10 11:16:22;;;;;;;6.22;3.20;;;30.20;45.20;;;;;;4963629;28;20053;-90
2022/05/10 11:18:53;;;;;;;2.75;2.55;;;30.20;44.50;;;;;;4991570;28;20084;-90
2022/05/10 11:22:00;;;;;;;2.95;2.47;;;30.20;44.90;;;;;;4980115;28;20210;-89
2022/05/10 11:24:32;;;;;;;4.50;2.83;;;30.00;44.10;;;;;;4979397;28;20077;-91
2022/05/10 11:27:04;;;;;;;2.83;2.60;;;29.80;44.40;;;;;;4976385;28;20104;-91
2022/05/10 11:30:01;;;;;;;3.20;2.90;;;29.60;44.10;;;;;;4972981;28;20038;-89
2022/05/10 11:33:14;;;;;;;4.15;3.17;;;29.60;44.70;;;;;;4979487;28;20044;-89
2022/05/10 11:35:58;;;;;;;2.95;2.50;;;29.50;44.60;;;;;;4919913;28;20530;-89
2022/05/10 11:38:52;;;;;;;3.53;2.80;;;29.20;44.10;;;;;;4979320;28;20030;-89
2022/05/10 11:41:44;;;;;;;3.63;2.70;;;29.10;45.00;;;;;;4976345;28;20454;-89
2022/05/10 11:44:26;;;;;;;2.90;2.60;;;29.00;45.00;;;;;;4943579;28;20026;-90
2022/05/10 11:46:59;;;;;;;4.82;2.75;;;28.80;45.30;;;;;;4967122;28;20027;-90
2022/05/10 11:49:52;;;;;;;2.85;2.40;;;28.90;45.30;;;;;;4965553;28;20027;-90
2022/05/10 11:52:50;;;;;;;4.20;2.63;;;29.00;44.90;;;;;;4959963;28;20030;-90
2022/05/10 11:55:41;;;;;;;3.38;2.63;;;29.00;44.70;;;;;;4975799;28;20118;-91
2022/05/10 11:58:08;;;;;;;3.33;2.70;;;29.10;45.10;;;;;;4968128;28;20114;-90
2022/05/10 12:00:34;;;;;;;4.97;2.70;;;29.10;44.90;;;;;;4961054;28;20027;-90
2022/05/10 12:03:04;;;;;;;6.07;2.28;;;29.00;44.60;;;;;;4959611;28;20031;-90
2022/05/10 12:05:41;;;;;;;4.90;2.60;;;28.90;44.70;;;;;;4964037;28;20023;-91
2022/05/10 12:08:19;;;;;;;4.32;2.70;;;28.90;44.40;;;;;;4972225;28;20095;-91
2022/05/10 12:10:50;;;;;;;3.55;2.80;;;28.90;44.70;;;;;;4985967;28;20058;-91
2022/05/10 12:22:08;;;;;;;2.75;2.20;;;28.90;45.00;;;;;;5002680;28;20030;-92
2022/05/10 12:24:53;;;;;;;2.33;1.98;;;28.90;44.50;;;;;;5001298;28;20605;-93
2022/05/10 12:28:09;;;;;;;2.40;2.13;;;29.00;44.00;;;;;;4999543;28;20072;-93
2022/05/10 12:30:36;;;;;;;2.05;1.90;;;29.10;44.40;;;;;;4899138;29;20084;-93
2022/05/10 12:33:35;;;;;;;2.00;1.58;;;29.10;43.50;;;;;;4963662;23;20047;-91
2022/05/10 12:36:01;;;;;;;1.77;1.50;;;29.10;43.00;;;;;;4934826;28;20039;-91
2022/05/10 12:38:44;;;;;;;2.47;1.80;;;29.10;42.80;;;;;;4944668;28;20040;-88
2022/05/10 12:41:30;;;;;;;2.78;1.90;;;29.00;42.40;;;;;;4963863;28;20031;-89
2022/05/10 12:44:30;;;;;;;2.80;2.08;;;29.00;42.40;;;;;;4945630;29;20028;-88
2022/05/10 12:47:31;;;;;;;5.10;2.08;;;29.00;42.40;;;;;;4924677;29;20086;-89
2022/05/10 12:50:22;;;;;;;2.13;1.97;;;29.00;42.30;;;;;;4941024;28;20111;-90
2022/05/10 12:52:48;;;;;;;3.15;1.85;;;28.90;42.70;;;;;;4958254;29;20122;-89
2022/05/10 12:55:27;;;;;;;2.60;2.03;;;28.70;42.30;;;;;;4975364;28;20095;-91
2022/05/10 13:00:59;;;;;;;2.50;1.90;;;28.50;42.60;;;;;;4952218;28;20047;-90
2022/05/10 13:03:41;;;;;;;1.70;1.60;;;28.40;43.30;;;;;;4867599;29;20027;-92
2022/05/10 13:06:10;;;;;;;4.00;1.70;;;28.30;42.40;;;;;;4928056;29;20068;-92
2022/05/10 13:08:50;;;;;;;3.15;1.80;;;28.10;42.70;;;;;;4925562;29;20126;-91
2022/05/10 13:11:18;;;;;;;2.55;2.15;;;28.10;42.40;;;;;;4910359;29;20038;-91
2022/05/10 13:13:45;;;;;;;2.15;1.98;;;28.10;42.80;;;;;;4928672;29;20025;-91
2022/05/10 13:16:20;;;;;;;2.92;2.25;;;28.00;43.10;;;;;;4914507;29;20032;-92
2022/05/10 13:18:47;;;;;;;5.53;2.60;;;28.00;43.30;;;;;;4928027;29;20036;-92
2022/05/10 13:21:25;;;;;;;2.47;2.15;;;27.90;42.90;;;;;;4928351;29;20030;-92
2022/05/10 13:23:53;;;;;;;2.20;2.00;;;27.90;42.90;;;;;;4919170;29;20032;-92
2022/05/10 13:26:20;;;;;;;2.25;1.90;;;27.80;43.20;;;;;;4925043;29;20110;-93
2022/05/10 13:28:51;;;;;;;2.47;2.00;;;27.80;43.30;;;;;;4917537;29;20036;-91
2022/05/10 13:31:26;;;;;;;1.90;1.80;;;27.70;42.60;;;;;;4921407;29;20016;-92
2022/05/10 13:34:07;;;;;;;3.90;2.50;;;27.50;42.80;;;;;;4920609;29;20111;-93
2022/05/10 13:36:32;;;;;;;2.78;2.58;;;27.40;43.00;;;;;;4918840;29;20027;-92
2022/05/10 13:38:58;;;;;;;2.55;2.35;;;27.30;43.10;;;;;;4910915;29;20040;-93
2022/05/10 13:41:30;;;;;;;2.80;1.90;;;27.20;43.30;;;;;;4908425;29;20031;-93
2022/05/10 13:44:01;;;;;;;2.15;1.95;;;27.10;43.50;;;;;;4907857;29;20034;-93
2022/05/10 13:46:30;;;;;;;2.88;2.17;;;27.10;43.80;;;;;;4928269;29;20035;-93
2022/05/10 13:49:28;;;;;;;2.15;2.05;;;27.20;43.60;;;;;;4934057;29;20027;-93
2022/05/10 13:51:59;;;;;;;2.35;2.00;;;27.30;43.80;;;;;;4924294;28;20019;-93
2022/05/10 13:54:59;;;;;;;3.22;2.20;;;27.40;43.60;;;;;;4939285;29;20036;-92
2022/05/10 13:57:54;;;;;;;3.38;2.20;;;27.40;44.20;;;;;;4930996;29;20051;-93
2022/05/10 14:00:25;;;;;;;2.45;2.00;;;27.40;43.40;;;;;;4928274;29;20094;-91
2022/05/10 14:02:55;;;;;;;3.28;2.35;;;27.20;43.00;;;;;;4910611;29;20639;-92
2022/05/10 14:05:23;;;;;;;3.25;2.00;;;27.00;43.60;;;;;;4916322;29;20024;-92